createdAt,value
2022-09-24T00:00:44.599Z,18.82
2022-09-24T00:01:44.708Z,18.78
2022-09-24T00:02:44.678Z,18.78
2022-09-24T00:03:44.603Z,18.75
2022-09-24T00:04:44.586Z,18.75
2022-09-24T00:05:44.589Z,18.78
2022-09-24T00:06:44.612Z,18.76
2022-09-24T00:07:44.586Z,18.78
2022-09-24T00:08:44.574Z,18.82
2022-09-24T00:09:44.582Z,18.78
2022-09-24T00:10:44.597Z,18.75
2022-09-24T00:11:44.578Z,18.81
2022-09-24T00:12:44.574Z,18.78
2022-09-24T00:13:44.558Z,18.81
2022-09-24T00:14:44.560Z,18.81
2022-09-24T00:15:44.605Z,18.76
2022-09-24T00:16:44.593Z,18.78
2022-09-24T00:17:44.558Z,18.75
2022-09-24T00:18:44.558Z,18.82
2022-09-24T00:19:44.552Z,18.75
2022-09-24T00:20:44.550Z,18.84
2022-09-24T00:21:44.547Z,18.80
2022-09-24T00:22:44.552Z,18.75
2022-09-24T00:23:44.553Z,18.80
2022-09-24T00:24:44.533Z,18.78
2022-09-24T00:25:44.525Z,18.75
2022-09-24T00:26:44.562Z,18.75
2022-09-24T00:27:44.528Z,18.80
2022-09-24T00:28:44.520Z,18.82
2022-09-24T00:29:44.522Z,18.80
2022-09-24T00:30:44.527Z,18.75
2022-09-24T00:31:44.563Z,18.75
2022-09-24T00:32:44.517Z,18.82
2022-09-24T00:33:44.503Z,18.80
2022-09-24T00:34:44.504Z,18.75
2022-09-24T00:35:44.508Z,18.82
2022-09-24T00:36:44.507Z,18.82
2022-09-24T00:37:44.502Z,18.76
2022-09-24T00:38:44.492Z,18.75
2022-09-24T00:39:44.503Z,18.80
2022-09-24T00:40:44.557Z,18.82
2022-09-24T00:41:44.498Z,18.76
2022-09-24T00:42:44.495Z,18.76
2022-09-24T00:43:44.485Z,18.80
2022-09-24T00:44:44.478Z,18.82
2022-09-24T00:45:44.475Z,18.78
2022-09-24T00:46:44.533Z,18.80
2022-09-24T00:47:44.463Z,18.75
2022-09-24T00:48:44.472Z,18.76
2022-09-24T00:49:44.472Z,18.80
2022-09-24T00:50:44.470Z,18.80
2022-09-24T00:51:44.475Z,18.85
2022-09-24T00:52:44.459Z,18.80
2022-09-24T00:53:44.454Z,18.76
2022-09-24T00:54:44.444Z,18.80
2022-09-24T00:55:44.456Z,18.81
2022-09-24T00:56:44.462Z,18.82
2022-09-24T00:57:44.444Z,18.78
2022-09-24T00:58:44.453Z,18.73
2022-09-24T00:59:44.437Z,18.78
2022-09-24T01:00:44.473Z,18.80
2022-09-24T01:01:44.451Z,18.82
2022-09-24T01:02:44.422Z,18.78
2022-09-24T01:03:44.417Z,18.78
2022-09-24T01:04:44.420Z,18.75
2022-09-24T01:05:44.415Z,18.78
2022-09-24T01:06:44.425Z,18.78
2022-09-24T01:07:44.416Z,18.80
2022-09-24T01:08:44.404Z,18.81
2022-09-24T01:09:44.419Z,18.80
2022-09-24T01:10:44.413Z,18.76
2022-09-24T01:11:44.413Z,18.70
2022-09-24T01:12:44.398Z,18.81
2022-09-24T01:13:44.388Z,18.82
2022-09-24T01:14:44.423Z,18.81
2022-09-24T01:15:44.430Z,18.78
2022-09-24T01:16:44.456Z,18.73
2022-09-24T01:17:44.383Z,18.78
2022-09-24T01:18:44.385Z,18.76
2022-09-24T01:19:44.382Z,18.80
2022-09-24T01:20:44.378Z,18.81
2022-09-24T01:21:44.370Z,18.80
2022-09-24T01:22:44.375Z,18.78
2022-09-24T01:23:48.531Z,18.73
2022-09-24T01:24:44.361Z,18.82
2022-09-24T01:25:44.365Z,18.76
2022-09-24T01:26:44.363Z,18.72
2022-09-24T01:27:44.355Z,18.76
2022-09-24T01:28:44.358Z,18.76
2022-09-24T01:29:44.357Z,18.82
2022-09-24T01:30:44.362Z,18.73
2022-09-24T01:31:44.538Z,18.75
2022-09-24T01:32:44.356Z,18.72
2022-09-24T01:33:44.344Z,18.80
2022-09-24T01:34:44.341Z,18.81
2022-09-24T01:35:44.336Z,18.78
2022-09-24T01:36:44.341Z,18.78
2022-09-24T01:37:44.331Z,18.78
2022-09-24T01:38:44.336Z,18.78
2022-09-24T01:39:44.321Z,18.72
2022-09-24T01:40:44.374Z,18.78
2022-09-24T01:41:44.319Z,18.78
2022-09-24T01:42:44.327Z,18.82
2022-09-24T01:43:44.318Z,18.82
2022-09-24T01:44:44.361Z,18.82
2022-09-24T01:45:44.308Z,18.76
2022-09-24T01:46:44.394Z,18.81
2022-09-24T01:47:44.305Z,18.69
2022-09-24T01:48:44.300Z,18.73
2022-09-24T01:49:44.294Z,18.69
2022-09-24T01:50:44.293Z,18.72
2022-09-24T01:51:44.291Z,18.72
2022-09-24T01:52:44.295Z,18.72
2022-09-24T01:53:44.284Z,18.80
2022-09-24T01:54:44.289Z,18.66
2022-09-24T01:55:44.286Z,18.70
2022-09-24T01:56:44.270Z,18.72
2022-09-24T01:57:44.278Z,18.73
2022-09-24T01:58:44.278Z,18.82
2022-09-24T01:59:44.273Z,18.70
2022-09-24T02:00:44.414Z,18.73
2022-09-24T02:01:44.351Z,18.73
2022-09-24T02:02:44.281Z,18.75
2022-09-24T02:03:44.254Z,18.69
2022-09-24T02:04:44.263Z,18.72
2022-09-24T02:05:44.261Z,18.70
2022-09-24T02:06:44.240Z,18.72
2022-09-24T02:07:44.244Z,18.75
2022-09-24T02:08:44.241Z,18.72
2022-09-24T02:09:44.237Z,18.70
2022-09-24T02:10:44.230Z,18.75
2022-09-24T02:11:44.232Z,18.73
2022-09-24T02:12:44.233Z,18.70
2022-09-24T02:13:44.230Z,18.70
2022-09-24T02:14:44.223Z,18.72
2022-09-24T02:15:44.281Z,18.69
2022-09-24T02:16:44.221Z,18.72
2022-09-24T02:17:44.210Z,18.70
2022-09-24T02:18:44.239Z,18.75
2022-09-24T02:19:44.217Z,18.69
2022-09-24T02:20:44.207Z,18.72
2022-09-24T02:21:44.204Z,18.75
2022-09-24T02:22:44.224Z,18.75
2022-09-24T02:23:44.198Z,18.70
2022-09-24T02:24:44.203Z,18.73
2022-09-24T02:25:44.207Z,18.73
2022-09-24T02:26:44.185Z,18.75
2022-09-24T02:27:44.186Z,18.72
2022-09-24T02:28:44.188Z,18.73
2022-09-24T02:29:44.192Z,18.70
2022-09-24T02:30:44.185Z,18.72
2022-09-24T02:31:44.280Z,18.70
2022-09-24T02:32:44.179Z,18.69
2022-09-24T02:33:44.174Z,18.76
2022-09-24T02:34:44.252Z,18.76
2022-09-24T02:35:44.168Z,18.73
2022-09-24T02:36:44.159Z,18.69
2022-09-24T02:37:44.155Z,18.69
2022-09-24T02:38:44.156Z,18.65
2022-09-24T02:39:44.158Z,18.73
2022-09-24T02:40:44.225Z,18.73
2022-09-24T02:41:44.156Z,18.69
2022-09-24T02:42:44.149Z,18.73
2022-09-24T02:43:44.144Z,18.67
2022-09-24T02:44:44.142Z,18.72
2022-09-24T02:45:44.138Z,18.73
2022-09-24T02:46:44.238Z,18.72
2022-09-24T02:47:44.123Z,18.70
2022-09-24T02:48:44.124Z,18.69
2022-09-24T02:49:44.127Z,18.69
2022-09-24T02:50:44.133Z,18.72
2022-09-24T02:51:44.134Z,18.73
2022-09-24T02:52:44.114Z,18.69
2022-09-24T02:53:44.114Z,18.69
2022-09-24T02:54:44.110Z,18.73
2022-09-24T02:55:44.103Z,18.70
2022-09-24T02:56:44.111Z,18.69
2022-09-24T02:57:44.105Z,18.70
2022-09-24T02:58:44.098Z,18.72
2022-09-24T02:59:44.095Z,18.67
2022-09-24T03:00:44.099Z,18.70
2022-09-24T03:01:44.245Z,18.70
2022-09-24T03:02:44.263Z,18.70
2022-09-24T03:03:44.089Z,18.73
2022-09-24T03:04:44.092Z,18.75
2022-09-24T03:05:44.081Z,18.67
2022-09-24T03:06:44.102Z,18.66
2022-09-24T03:07:44.072Z,18.75
2022-09-24T03:08:44.078Z,18.73
2022-09-24T03:09:44.068Z,18.63
2022-09-24T03:10:44.072Z,18.70
2022-09-24T03:11:44.080Z,18.67
2022-09-24T03:12:44.068Z,18.69
2022-09-24T03:13:44.073Z,18.66
2022-09-24T03:14:44.078Z,18.69
2022-09-24T03:15:44.118Z,18.69
2022-09-24T03:16:44.049Z,18.67
2022-09-24T03:17:44.053Z,18.70
2022-09-24T03:18:44.053Z,18.75
2022-09-24T03:19:44.047Z,18.73
2022-09-24T03:20:44.033Z,18.76
2022-09-24T03:21:44.035Z,18.67
2022-09-24T03:22:44.043Z,18.69
2022-09-24T03:23:44.038Z,18.70
2022-09-24T03:24:44.024Z,18.72
2022-09-24T03:25:44.015Z,18.72
2022-09-24T03:26:44.025Z,18.70
2022-09-24T03:27:44.011Z,18.80
2022-09-24T03:28:44.006Z,18.66
2022-09-24T03:29:44.015Z,18.70
2022-09-24T03:30:44.012Z,18.70
2022-09-24T03:31:44.051Z,18.70
2022-09-24T03:32:44.005Z,18.65
2022-09-24T03:33:44.018Z,18.72
2022-09-24T03:34:43.992Z,18.67
2022-09-24T03:35:43.994Z,18.69
2022-09-24T03:36:43.991Z,18.75
2022-09-24T03:37:48.943Z,18.70
2022-09-24T03:38:44.009Z,18.69
2022-09-24T03:39:43.984Z,18.72
2022-09-24T03:40:44.017Z,18.75
2022-09-24T03:41:43.976Z,18.65
2022-09-24T03:42:43.982Z,18.69
2022-09-24T03:43:43.980Z,18.62
2022-09-24T03:44:43.978Z,18.73
2022-09-24T03:45:43.967Z,18.73
2022-09-24T03:46:43.983Z,18.69
2022-09-24T03:47:43.953Z,18.67
2022-09-24T03:48:43.966Z,18.70
2022-09-24T03:49:43.956Z,18.65
2022-09-24T03:50:43.953Z,18.67
2022-09-24T03:51:43.944Z,18.60
2022-09-24T03:52:43.939Z,18.58
2022-09-24T03:53:43.947Z,18.63
2022-09-24T03:54:43.966Z,18.63
2022-09-24T03:55:43.946Z,18.67
2022-09-24T03:56:43.929Z,18.60
2022-09-24T03:57:43.925Z,18.66
2022-09-24T03:58:43.958Z,18.60
2022-09-24T03:59:43.935Z,18.58
2022-09-24T04:00:43.920Z,18.76
2022-09-24T04:01:44.027Z,18.66
2022-09-24T04:02:43.981Z,18.67
2022-09-24T04:03:43.917Z,18.57
2022-09-24T04:04:43.921Z,18.67
2022-09-24T04:05:43.915Z,18.60
2022-09-24T04:06:43.909Z,18.67
2022-09-24T04:07:43.901Z,18.60
2022-09-24T04:08:43.901Z,18.65
2022-09-24T04:09:43.893Z,18.58
2022-09-24T04:10:44.003Z,18.69
2022-09-24T04:11:43.885Z,18.65
2022-09-24T04:12:43.880Z,18.65
2022-09-24T04:13:43.880Z,18.62
2022-09-24T04:14:43.884Z,18.60
2022-09-24T04:15:43.965Z,18.65
2022-09-24T04:16:43.883Z,18.62
2022-09-24T04:17:43.870Z,18.62
2022-09-24T04:18:43.868Z,18.67
2022-09-24T04:19:43.868Z,18.57
2022-09-24T04:20:43.868Z,18.60
2022-09-24T04:21:43.929Z,18.58
2022-09-24T04:22:43.866Z,18.69
2022-09-24T04:23:43.864Z,18.65
2022-09-24T04:24:43.847Z,18.60
2022-09-24T04:25:43.852Z,18.65
2022-09-24T04:26:43.869Z,18.67
2022-09-24T04:27:43.849Z,18.67
2022-09-24T04:28:43.848Z,18.66
2022-09-24T04:29:43.840Z,18.62
2022-09-24T04:30:43.841Z,18.65
2022-09-24T04:31:43.929Z,18.67
2022-09-24T04:32:43.834Z,18.67
2022-09-24T04:33:43.823Z,18.62
2022-09-24T04:34:43.819Z,18.70
2022-09-24T04:35:43.823Z,18.69
2022-09-24T04:36:43.815Z,18.58
2022-09-24T04:37:43.811Z,18.63
2022-09-24T04:38:43.814Z,18.63
2022-09-24T04:39:43.802Z,18.58
2022-09-24T04:40:43.815Z,18.63
2022-09-24T04:41:43.807Z,18.67
2022-09-24T04:42:43.821Z,18.62
2022-09-24T04:43:43.803Z,18.67
2022-09-24T04:44:43.819Z,18.69
2022-09-24T04:45:43.795Z,18.65
2022-09-24T04:46:43.829Z,18.65
2022-09-24T04:47:43.793Z,18.66
2022-09-24T04:48:43.787Z,18.66
2022-09-24T04:49:43.783Z,18.65
2022-09-24T04:50:46.281Z,18.70
2022-09-24T04:51:43.775Z,18.65
2022-09-24T04:52:43.774Z,18.67
2022-09-24T04:53:43.766Z,18.67
2022-09-24T04:54:43.770Z,18.65
2022-09-24T04:55:43.756Z,18.66
2022-09-24T04:56:43.760Z,18.51
2022-09-24T04:57:43.752Z,18.65
2022-09-24T04:58:43.848Z,18.67
2022-09-24T04:59:43.750Z,18.69
2022-09-24T05:00:43.750Z,18.60
2022-09-24T05:01:43.841Z,18.57
2022-09-24T05:02:43.906Z,18.65
2022-09-24T05:03:43.739Z,18.65
2022-09-24T05:04:43.738Z,18.65
2022-09-24T05:05:43.737Z,18.58
2022-09-24T05:06:43.725Z,18.55
2022-09-24T05:07:43.725Z,18.63
2022-09-24T05:08:43.720Z,18.65
2022-09-24T05:09:43.726Z,18.55
2022-09-24T05:10:43.717Z,18.57
2022-09-24T05:11:43.714Z,18.63
2022-09-24T05:12:43.708Z,18.57
2022-09-24T05:13:43.718Z,18.65
2022-09-24T05:14:43.737Z,18.63
2022-09-24T05:15:43.864Z,18.55
2022-09-24T05:16:43.698Z,18.57
2022-09-24T05:17:43.714Z,18.63
2022-09-24T05:18:43.702Z,18.58
2022-09-24T05:19:43.698Z,18.60
2022-09-24T05:20:43.682Z,18.60
2022-09-24T05:21:43.689Z,18.54
2022-09-24T05:22:43.688Z,18.66
2022-09-24T05:23:43.687Z,18.55
2022-09-24T05:24:43.678Z,18.55
2022-09-24T05:25:43.693Z,18.54
2022-09-24T05:26:43.669Z,18.55
2022-09-24T05:27:43.671Z,18.52
2022-09-24T05:28:43.664Z,18.57
2022-09-24T05:29:43.683Z,18.58
2022-09-24T05:30:43.685Z,18.58
2022-09-24T05:31:43.717Z,18.62
2022-09-24T05:32:43.648Z,18.55
2022-09-24T05:33:43.660Z,18.65
2022-09-24T05:34:43.654Z,18.50
2022-09-24T05:35:43.659Z,18.58
2022-09-24T05:36:43.646Z,18.51
2022-09-24T05:37:43.640Z,18.55
2022-09-24T05:38:43.644Z,18.63
2022-09-24T05:39:43.630Z,18.57
2022-09-24T05:40:43.788Z,18.57
2022-09-24T05:41:43.650Z,18.62
2022-09-24T05:42:43.626Z,18.54
2022-09-24T05:43:43.622Z,18.54
2022-09-24T05:44:45.662Z,18.55
2022-09-24T05:45:43.632Z,18.55
2022-09-24T05:46:43.676Z,18.57
2022-09-24T05:47:43.609Z,18.65
2022-09-24T05:48:43.604Z,18.55
2022-09-24T05:49:43.616Z,18.55
2022-09-24T05:50:43.603Z,18.60
2022-09-24T05:51:43.608Z,18.63
2022-09-24T05:52:43.599Z,18.60
2022-09-24T05:53:43.589Z,18.58
2022-09-24T05:54:43.598Z,18.58
2022-09-24T05:55:43.591Z,18.54
2022-09-24T05:56:43.602Z,18.60
2022-09-24T05:57:43.578Z,18.58
2022-09-24T05:58:43.583Z,18.52
2022-09-24T05:59:43.569Z,18.57
2022-09-24T06:00:43.571Z,18.58
2022-09-24T06:01:43.611Z,18.58
2022-09-24T06:02:43.657Z,18.54
2022-09-24T06:03:43.560Z,18.60
2022-09-24T06:04:43.565Z,18.54
2022-09-24T06:05:43.563Z,18.60
2022-09-24T06:06:43.560Z,18.60
2022-09-24T06:07:43.565Z,18.51
2022-09-24T06:08:43.557Z,18.51
2022-09-24T06:09:43.557Z,18.57
2022-09-24T06:10:43.546Z,18.54
2022-09-24T06:11:43.543Z,18.55
2022-09-24T06:12:43.546Z,18.54
2022-09-24T06:13:43.532Z,18.55
2022-09-24T06:14:43.538Z,18.63
2022-09-24T06:15:43.627Z,18.51
2022-09-24T06:16:43.588Z,18.62
2022-09-24T06:17:43.530Z,18.55
2022-09-24T06:18:43.549Z,18.51
2022-09-24T06:19:43.521Z,18.58
2022-09-24T06:20:43.517Z,18.55
2022-09-24T06:21:43.510Z,18.51
2022-09-24T06:22:43.515Z,18.66
2022-09-24T06:23:43.529Z,18.62
2022-09-24T06:24:43.534Z,18.57
2022-09-24T06:25:43.528Z,18.58
2022-09-24T06:26:43.500Z,18.51
2022-09-24T06:27:43.502Z,18.55
2022-09-24T06:28:43.503Z,18.57
2022-09-24T06:29:43.491Z,18.52
2022-09-24T06:30:43.479Z,18.54
2022-09-24T06:31:43.529Z,18.54
2022-09-24T06:32:43.483Z,18.50
2022-09-24T06:33:43.480Z,18.52
2022-09-24T06:34:43.507Z,18.48
2022-09-24T06:35:43.466Z,18.54
2022-09-24T06:36:43.487Z,18.52
2022-09-24T06:37:43.464Z,18.58
2022-09-24T06:38:43.471Z,18.54
2022-09-24T06:39:43.485Z,18.57
2022-09-24T06:40:43.549Z,18.62
2022-09-24T06:41:43.450Z,18.50
2022-09-24T06:42:43.452Z,18.51
2022-09-24T06:43:43.463Z,18.50
2022-09-24T06:44:43.451Z,18.57
2022-09-24T06:45:43.448Z,18.48
2022-09-24T06:46:43.525Z,18.52
2022-09-24T06:47:43.445Z,18.52
2022-09-24T06:48:43.440Z,18.51
2022-09-24T06:49:43.439Z,18.57
2022-09-24T06:50:43.440Z,18.52
2022-09-24T06:51:43.427Z,18.52
2022-09-24T06:52:43.428Z,18.58
2022-09-24T06:53:43.426Z,18.58
2022-09-24T06:54:43.426Z,18.55
2022-09-24T06:55:43.416Z,18.52
2022-09-24T06:56:43.411Z,18.54
2022-09-24T06:57:43.417Z,18.51
2022-09-24T06:58:43.411Z,18.54
2022-09-24T06:59:43.406Z,18.60
2022-09-24T07:00:43.528Z,18.55
2022-09-24T07:01:43.576Z,18.54
2022-09-24T07:02:43.388Z,18.54
2022-09-24T07:03:43.397Z,18.50
2022-09-24T07:04:43.396Z,18.57
2022-09-24T07:05:44.035Z,18.52
2022-09-24T07:06:43.408Z,18.58
2022-09-24T07:07:43.384Z,18.54
2022-09-24T07:08:43.375Z,18.54
2022-09-24T07:09:43.376Z,18.54
2022-09-24T07:10:43.374Z,18.52
2022-09-24T07:11:43.372Z,18.54
2022-09-24T07:12:43.366Z,18.54
2022-09-24T07:13:43.362Z,18.60
2022-09-24T07:14:43.413Z,18.51
2022-09-24T07:15:43.452Z,18.52
2022-09-24T07:16:43.349Z,18.51
2022-09-24T07:17:43.348Z,18.63
2022-09-24T07:18:43.354Z,18.57
2022-09-24T07:19:43.347Z,18.63
2022-09-24T07:20:43.342Z,18.51
2022-09-24T07:21:43.337Z,18.51
2022-09-24T07:22:43.367Z,18.66
2022-09-24T07:23:43.349Z,18.51
2022-09-24T07:24:43.336Z,18.55
2022-09-24T07:25:43.331Z,18.58
2022-09-24T07:26:43.334Z,18.51
2022-09-24T07:27:43.328Z,18.55
2022-09-24T07:28:43.321Z,18.57
2022-09-24T07:29:43.327Z,18.54
2022-09-24T07:30:43.326Z,18.65
2022-09-24T07:31:43.365Z,18.52
2022-09-24T07:32:43.302Z,18.69
2022-09-24T07:33:43.313Z,18.60
2022-09-24T07:34:43.305Z,18.67
2022-09-24T07:35:43.304Z,18.63
2022-09-24T07:36:43.291Z,18.57
2022-09-24T07:37:43.318Z,18.63
2022-09-24T07:38:43.324Z,18.60
2022-09-24T07:39:43.298Z,18.62
2022-09-24T07:40:43.317Z,18.67
2022-09-24T07:41:43.299Z,18.62
2022-09-24T07:42:43.284Z,18.73
2022-09-24T07:43:43.277Z,18.65
2022-09-24T07:44:43.275Z,18.73
2022-09-24T07:45:43.295Z,18.62
2022-09-24T07:46:43.352Z,18.63
2022-09-24T07:47:43.263Z,18.69
2022-09-24T07:48:43.278Z,18.69
2022-09-24T07:49:43.271Z,18.69
2022-09-24T07:50:43.277Z,18.69
2022-09-24T07:51:43.255Z,18.70
2022-09-24T07:52:43.247Z,18.67
2022-09-24T07:53:43.251Z,18.67
2022-09-24T07:54:43.272Z,18.70
2022-09-24T07:55:43.242Z,18.75
2022-09-24T07:56:43.244Z,18.73
2022-09-24T07:57:43.255Z,18.69
2022-09-24T07:58:43.259Z,18.72
2022-09-24T07:59:43.233Z,18.72
2022-09-24T08:00:43.233Z,18.72
2022-09-24T08:01:43.312Z,18.70
2022-09-24T08:02:43.233Z,18.69
2022-09-24T08:03:43.269Z,18.72
2022-09-24T08:04:43.234Z,18.66
2022-09-24T08:05:43.229Z,18.69
2022-09-24T08:06:47.398Z,18.75
2022-09-24T08:07:43.216Z,18.72
2022-09-24T08:08:43.220Z,18.73
2022-09-24T08:09:43.212Z,18.72
2022-09-24T08:10:43.221Z,18.73
2022-09-24T08:11:43.201Z,18.70
2022-09-24T08:12:43.201Z,18.70
2022-09-24T08:13:43.203Z,18.75
2022-09-24T08:14:43.196Z,18.78
2022-09-24T08:15:43.242Z,18.72
2022-09-24T08:16:43.187Z,18.73
2022-09-24T08:17:43.196Z,18.75
2022-09-24T08:18:43.190Z,18.70
2022-09-24T08:19:43.206Z,18.75
2022-09-24T08:20:43.182Z,18.76
2022-09-24T08:21:43.182Z,18.78
2022-09-24T08:22:43.191Z,18.70
2022-09-24T08:23:43.170Z,18.78
2022-09-24T08:24:43.161Z,18.73
2022-09-24T08:25:43.163Z,18.78
2022-09-24T08:26:43.285Z,18.80
2022-09-24T08:27:43.163Z,18.67
2022-09-24T08:28:43.162Z,18.69
2022-09-24T08:29:43.164Z,18.78
2022-09-24T08:30:43.158Z,18.78
2022-09-24T08:31:43.287Z,18.82
2022-09-24T08:32:43.165Z,18.80
2022-09-24T08:33:43.146Z,18.82
2022-09-24T08:34:43.149Z,18.80
2022-09-24T08:35:43.135Z,18.75
2022-09-24T08:36:43.464Z,18.80
2022-09-24T08:37:43.135Z,18.80
2022-09-24T08:38:43.134Z,18.80
2022-09-24T08:39:43.128Z,18.84
2022-09-24T08:40:43.347Z,18.80
2022-09-24T08:41:43.128Z,18.76
2022-09-24T08:42:43.229Z,18.80
2022-09-24T08:43:43.121Z,18.80
2022-09-24T08:44:43.118Z,18.90
2022-09-24T08:45:43.115Z,18.85
2022-09-24T08:46:43.205Z,18.87
2022-09-24T08:47:43.106Z,18.75
2022-09-24T08:48:43.113Z,18.81
2022-09-24T08:49:43.116Z,18.81
2022-09-24T08:50:43.100Z,18.80
2022-09-24T08:51:43.096Z,18.81
2022-09-24T08:52:43.099Z,18.82
2022-09-24T08:53:43.109Z,18.88
2022-09-24T08:54:43.107Z,18.81
2022-09-24T08:55:43.086Z,18.81
2022-09-24T08:56:43.095Z,18.81
2022-09-24T08:57:43.087Z,18.84
2022-09-24T08:58:44.611Z,18.87
2022-09-24T08:59:43.085Z,18.81
2022-09-24T09:00:43.082Z,18.85
2022-09-24T09:01:43.175Z,18.91
2022-09-24T09:02:43.130Z,18.81
2022-09-24T09:03:43.079Z,18.82
2022-09-24T09:04:43.066Z,18.88
2022-09-24T09:05:47.249Z,18.87
2022-09-24T09:06:43.059Z,18.82
2022-09-24T09:07:43.070Z,18.81
2022-09-24T09:09:01.708Z,18.87
2022-09-24T09:09:43.053Z,18.88
2022-09-24T09:10:43.055Z,18.85
2022-09-24T09:11:43.041Z,18.81
2022-09-24T09:12:43.081Z,18.87
2022-09-24T09:13:43.064Z,18.84
2022-09-24T09:14:43.067Z,18.88
2022-09-24T09:15:43.107Z,18.85
2022-09-24T09:16:43.038Z,18.88
2022-09-24T09:17:43.045Z,18.92
2022-09-24T09:18:43.039Z,18.90
2022-09-24T09:19:43.029Z,18.78
2022-09-24T09:20:43.036Z,18.84
2022-09-24T09:21:43.042Z,18.92
2022-09-24T09:22:43.055Z,18.80
2022-09-24T09:23:43.018Z,18.84
2022-09-24T09:24:43.029Z,18.92
2022-09-24T09:25:43.046Z,18.84
2022-09-24T09:26:43.025Z,18.87
2022-09-24T09:27:43.074Z,18.85
2022-09-24T09:28:43.016Z,18.81
2022-09-24T09:29:43.009Z,18.80
2022-09-24T09:30:43.026Z,18.91
2022-09-24T09:31:43.037Z,18.88
2022-09-24T09:32:42.998Z,18.82
2022-09-24T09:33:42.995Z,18.80
2022-09-24T09:34:42.995Z,18.84
2022-09-24T09:35:42.990Z,18.87
2022-09-24T09:36:42.989Z,18.90
2022-09-24T09:37:43.073Z,18.81
2022-09-24T09:38:42.998Z,18.84
2022-09-24T09:39:42.981Z,18.88
2022-09-24T09:40:43.024Z,18.90
2022-09-24T09:41:43.007Z,18.87
2022-09-24T09:42:42.976Z,18.94
2022-09-24T09:43:42.966Z,18.91
2022-09-24T09:44:42.959Z,18.82
2022-09-24T09:45:43.008Z,18.82
2022-09-24T09:46:43.182Z,18.88
2022-09-24T09:47:42.969Z,18.94
2022-09-24T09:48:42.958Z,18.94
2022-09-24T09:49:42.949Z,18.88
2022-09-24T09:50:42.955Z,18.94
2022-09-24T09:51:42.945Z,18.90
2022-09-24T09:52:42.948Z,18.90
2022-09-24T09:53:42.944Z,18.84
2022-09-24T09:54:42.949Z,18.95
2022-09-24T09:55:42.966Z,18.94
2022-09-24T09:56:42.940Z,18.88
2022-09-24T09:57:42.945Z,18.91
2022-09-24T09:58:42.940Z,18.90
2022-09-24T09:59:42.929Z,18.82
2022-09-24T10:00:42.936Z,18.94
2022-09-24T10:01:42.977Z,18.94
2022-09-24T10:02:43.095Z,18.94
2022-09-24T10:03:42.974Z,18.84
2022-09-24T10:04:42.921Z,18.91
2022-09-24T10:05:42.921Z,18.82
2022-09-24T10:06:42.909Z,18.94
2022-09-24T10:07:42.910Z,18.91
2022-09-24T10:08:42.913Z,18.92
2022-09-24T10:09:42.926Z,18.99
2022-09-24T10:10:42.899Z,18.90
2022-09-24T10:11:42.897Z,18.92
2022-09-24T10:12:42.892Z,18.90
2022-09-24T10:13:42.893Z,18.94
2022-09-24T10:14:42.902Z,18.91
2022-09-24T10:15:45.534Z,18.91
2022-09-24T10:16:42.984Z,18.99
2022-09-24T10:17:42.891Z,18.94
2022-09-24T10:18:42.902Z,18.94
2022-09-24T10:19:42.891Z,18.99
2022-09-24T10:20:42.879Z,18.99
2022-09-24T10:21:42.871Z,18.98
2022-09-24T10:22:42.879Z,18.88
2022-09-24T10:23:42.866Z,18.92
2022-09-24T10:24:42.866Z,18.95
2022-09-24T10:25:42.860Z,18.90
2022-09-24T10:26:45.239Z,18.91
2022-09-24T10:27:42.860Z,18.92
2022-09-24T10:28:42.855Z,18.91
2022-09-24T10:29:42.857Z,18.95
2022-09-24T10:30:42.865Z,18.91
2022-09-24T10:31:42.923Z,18.95
2022-09-24T10:32:42.842Z,18.91
2022-09-24T10:33:42.843Z,18.90
2022-09-24T10:34:42.861Z,18.94
2022-09-24T10:35:42.837Z,18.91
2022-09-24T10:36:43.005Z,18.94
2022-09-24T10:37:42.851Z,18.94
2022-09-24T10:38:42.834Z,18.94
2022-09-24T10:39:42.832Z,18.99
2022-09-24T10:40:42.904Z,18.91
2022-09-24T10:41:42.858Z,18.94
2022-09-24T10:42:42.818Z,18.94
2022-09-24T10:43:42.815Z,18.99
2022-09-24T10:44:42.824Z,18.91
2022-09-24T10:45:42.816Z,18.91
2022-09-24T10:46:42.950Z,18.98
2022-09-24T10:47:42.824Z,18.91
2022-09-24T10:48:42.807Z,18.94
2022-09-24T10:49:42.807Z,18.94
2022-09-24T10:50:42.821Z,18.92
2022-09-24T10:51:42.803Z,18.95
2022-09-24T10:52:42.814Z,18.92
2022-09-24T10:53:42.798Z,19.02
2022-09-24T10:54:42.788Z,18.94
2022-09-24T10:55:42.787Z,18.99
2022-09-24T10:56:46.430Z,18.92
2022-09-24T10:57:42.787Z,18.94
2022-09-24T10:58:42.787Z,18.94
2022-09-24T10:59:42.779Z,18.95
2022-09-24T11:00:42.775Z,18.95
2022-09-24T11:01:42.914Z,18.94
2022-09-24T11:02:42.823Z,18.99
2022-09-24T11:03:42.785Z,18.94
2022-09-24T11:04:42.772Z,18.95
2022-09-24T11:05:42.761Z,18.95
2022-09-24T11:06:42.790Z,18.98
2022-09-24T11:07:42.775Z,18.92
2022-09-24T11:08:42.765Z,18.95
2022-09-24T11:09:42.759Z,18.92
2022-09-24T11:10:42.867Z,18.95
2022-09-24T11:11:42.756Z,18.95
2022-09-24T11:12:42.746Z,18.95
2022-09-24T11:13:42.747Z,18.94
2022-09-24T11:14:42.750Z,18.95
2022-09-24T11:15:42.819Z,19.00
2022-09-24T11:16:42.741Z,18.85
2022-09-24T11:17:42.739Z,18.94
2022-09-24T11:18:42.741Z,18.95
2022-09-24T11:19:42.736Z,18.94
2022-09-24T11:20:42.730Z,18.98
2022-09-24T11:21:42.719Z,18.95
2022-09-24T11:22:42.824Z,18.98
2022-09-24T11:23:42.729Z,18.88
2022-09-24T11:24:42.730Z,18.94
2022-09-24T11:25:42.729Z,18.95
2022-09-24T11:26:42.758Z,18.91
2022-09-24T11:27:42.705Z,18.90
2022-09-24T11:28:42.710Z,18.90
2022-09-24T11:29:42.702Z,18.99
2022-09-24T11:30:42.726Z,18.95
2022-09-24T11:31:42.743Z,18.91
2022-09-24T11:32:42.756Z,18.94
2022-09-24T11:33:42.695Z,18.95
2022-09-24T11:34:42.705Z,18.92
2022-09-24T11:35:42.708Z,18.98
2022-09-24T11:36:42.691Z,18.99
2022-09-24T11:37:42.682Z,18.99
2022-09-24T11:38:42.788Z,18.94
2022-09-24T11:39:42.682Z,18.91
2022-09-24T11:40:42.841Z,18.98
2022-09-24T11:41:42.682Z,18.90
2022-09-24T11:42:42.678Z,18.92
2022-09-24T11:43:42.670Z,18.91
2022-09-24T11:44:42.677Z,18.95
2022-09-24T11:45:42.657Z,18.92
2022-09-24T11:46:42.747Z,18.99
2022-09-24T11:47:42.652Z,18.92
2022-09-24T11:48:42.661Z,18.95
2022-09-24T11:49:42.659Z,18.98
2022-09-24T11:50:47.552Z,18.95
2022-09-24T11:51:42.654Z,18.90
2022-09-24T11:52:42.653Z,18.98
2022-09-24T11:53:42.641Z,18.95
2022-09-24T11:54:42.668Z,18.98
2022-09-24T11:55:42.646Z,18.98
2022-09-24T11:56:42.638Z,18.95
2022-09-24T11:57:42.637Z,18.95
2022-09-24T11:58:42.638Z,18.99
2022-09-24T11:59:42.637Z,18.91
2022-09-24T12:00:42.631Z,19.02
2022-09-24T12:01:42.651Z,18.92
2022-09-24T12:02:42.698Z,18.92
2022-09-24T12:03:42.630Z,18.98
2022-09-24T12:04:42.621Z,18.95
2022-09-24T12:05:42.615Z,19.00
2022-09-24T12:06:42.632Z,18.94
2022-09-24T12:07:42.719Z,18.92
2022-09-24T12:08:42.609Z,18.92
2022-09-24T12:09:42.598Z,18.85
2022-09-24T12:10:42.625Z,18.98
2022-09-24T12:11:42.626Z,18.92
2022-09-24T12:12:42.608Z,18.99
2022-09-24T12:13:42.622Z,18.99
2022-09-24T12:14:42.606Z,18.94
2022-09-24T12:15:42.596Z,19.00
2022-09-24T12:16:42.595Z,18.99
2022-09-24T12:17:42.594Z,18.91
2022-09-24T12:18:42.587Z,18.98
2022-09-24T12:19:42.633Z,18.98
2022-09-24T12:20:42.591Z,18.95
2022-09-24T12:21:42.581Z,18.95
2022-09-24T12:22:42.571Z,19.00
2022-09-24T12:23:42.580Z,18.98
2022-09-24T12:24:42.573Z,18.98
2022-09-24T12:25:42.571Z,18.98
2022-09-24T12:26:42.670Z,18.94
2022-09-24T12:27:42.559Z,18.99
2022-09-24T12:28:42.552Z,18.99
2022-09-24T12:29:42.581Z,18.95
2022-09-24T12:30:42.559Z,18.94
2022-09-24T12:31:42.652Z,19.02
2022-09-24T12:32:42.552Z,18.99
2022-09-24T12:33:42.541Z,19.04
2022-09-24T12:34:42.559Z,19.00
2022-09-24T12:35:42.535Z,18.94
2022-09-24T12:36:42.534Z,18.92
2022-09-24T12:37:42.572Z,19.06
2022-09-24T12:38:42.545Z,18.98
2022-09-24T12:39:42.530Z,19.04
2022-09-24T12:40:42.640Z,18.98
2022-09-24T12:41:42.532Z,19.00
2022-09-24T12:42:42.546Z,19.04
2022-09-24T12:43:42.522Z,19.00
2022-09-24T12:44:42.560Z,18.98
2022-09-24T12:45:42.518Z,19.02
2022-09-24T12:47:24.393Z,18.99
2022-09-24T12:48:24.385Z,18.98
2022-09-24T12:49:24.387Z,18.99
2022-09-24T12:50:24.378Z,18.95
2022-09-24T12:51:24.387Z,19.02
2022-09-24T12:52:24.373Z,18.98
2022-09-24T12:53:24.376Z,18.99